Time;durP1;ratioP1;P1;durP2;ratioP2;P2;SDS_P1;SDS_P2;PMS_P1;PMS_P2;Temp;Humidity;BMP_temperature;BMP_pressure;BME280_temperature;BME280_humidity;BME280_pressure;Samples;Min_cycle;Max_cycle;Signal;HPM_P1;HPM_P2
2022/05/29 00:00:01;;;;;;;11.93;2.07;;;10.30;93.70;;;;;;4957302;28;20066;-73
2022/05/29 00:02:27;;;;;;;8.70;2.03;;;10.30;93.60;;;;;;4974467;28;20030;-73
2022/05/29 00:04:52;;;;;;;11.47;1.27;;;10.30;93.70;;;;;;4974395;28;20030;-73
2022/05/29 00:07:20;;;;;;;11.37;1.50;;;10.40;94.00;;;;;;4957335;28;20031;-73
2022/05/29 00:09:47;;;;;;;7.50;1.67;;;10.40;94.00;;;;;;4984292;28;20162;-73
2022/05/29 00:12:14;;;;;;;11.07;1.90;;;10.40;93.90;;;;;;4993689;28;20047;-73
2022/05/29 00:14:41;;;;;;;6.27;1.60;;;10.40;94.00;;;;;;4994062;28;20042;-74
2022/05/29 00:17:07;;;;;;;7.30;2.40;;;10.40;94.20;;;;;;4960552;28;20389;-74
2022/05/29 00:19:33;;;;;;;3.50;0.97;;;10.40;93.90;;;;;;4993720;28;20102;-73
2022/05/29 00:21:59;;;;;;;4.77;1.30;;;10.50;94.00;;;;;;4989498;28;20046;-73
2022/05/29 00:24:25;;;;;;;8.17;1.43;;;10.40;93.90;;;;;;4957032;28;20475;-73
2022/05/29 00:26:50;;;;;;;6.17;1.97;;;10.40;93.90;;;;;;4989352;28;20031;-73
2022/05/29 00:29:16;;;;;;;7.33;1.57;;;10.50;93.90;;;;;;4974524;28;20086;-74
2022/05/29 00:31:42;;;;;;;6.40;1.37;;;10.50;94.00;;;;;;4989306;28;20482;-73
2022/05/29 00:34:07;;;;;;;4.97;1.60;;;10.50;94.00;;;;;;4974678;28;20023;-74
2022/05/29 00:36:37;;;;;;;6.73;1.37;;;10.50;94.00;;;;;;4989160;28;20035;-73
2022/05/29 00:39:03;;;;;;;9.53;1.93;;;10.50;94.40;;;;;;4980842;28;20045;-73
2022/05/29 00:41:34;;;;;;;5.07;1.17;;;10.50;94.70;;;;;;4993945;28;20034;-73
2022/05/29 00:44:10;;;;;;;5.83;1.30;;;10.50;95.00;;;;;;4993621;28;20015;-73
2022/05/29 00:46:36;;;;;;;4.87;1.03;;;10.50;95.20;;;;;;4976507;28;20027;-74
2022/05/29 00:49:06;;;;;;;6.33;1.40;;;10.50;95.30;;;;;;4993730;28;20027;-73
2022/05/29 00:51:38;;;;;;;6.80;1.93;;;10.50;95.20;;;;;;4970086;28;20050;-73
2022/05/29 00:54:06;;;;;;;7.50;1.40;;;10.50;95.30;;;;;;4977072;28;20037;-73
2022/05/29 00:56:33;;;;;;;7.60;1.57;;;10.40;95.30;;;;;;4993423;28;20015;-73
2022/05/29 00:59:00;;;;;;;9.00;1.77;;;10.40;95.30;;;;;;4995903;28;20042;-73
2022/05/29 01:01:27;;;;;;;5.87;1.60;;;10.50;95.30;;;;;;4996970;28;20037;-73
2022/05/29 01:03:55;;;;;;;7.60;2.47;;;10.50;95.30;;;;;;4996819;28;20101;-73
2022/05/29 01:06:20;;;;;;;7.10;2.13;;;10.50;95.30;;;;;;4995545;28;20121;-72
2022/05/29 01:08:46;;;;;;;9.27;1.93;;;10.50;95.40;;;;;;4961296;28;20117;-73
2022/05/29 01:11:40;;;;;;;5.70;1.80;;;10.50;95.30;;;;;;4960159;28;20031;-73
2022/05/29 01:14:12;;;;;;;5.45;2.15;;;10.50;95.50;;;;;;4977637;28;20110;-73
2022/05/29 01:16:59;;;;;;;8.57;1.93;;;10.60;95.60;;;;;;4976222;28;20030;-74
2022/05/29 01:19:39;;;;;;;8.13;1.97;;;10.50;95.90;;;;;;4977800;28;20035;-73
2022/05/29 01:22:18;;;;;;;7.50;2.10;;;10.50;95.60;;;;;;4985269;28;20015;-73
2022/05/29 01:25:09;;;;;;;13.70;2.77;;;10.60;95.70;;;;;;4996481;28;20038;-74
2022/05/29 01:27:59;;;;;;;5.63;2.13;;;10.50;95.70;;;;;;4979258;28;20031;-74
2022/05/29 01:30:28;;;;;;;10.77;2.50;;;10.60;95.80;;;;;;4979129;28;20125;-74
2022/05/29 01:33:37;;;;;;;10.83;2.90;;;10.50;95.80;;;;;;4996624;28;20412;-74
2022/05/29 01:36:11;;;;;;;9.60;2.10;;;10.60;95.90;;;;;;4940634;28;20085;-74
2022/05/29 01:38:45;;;;;;;;;;;10.60;95.70;;;;;;4994040;28;20066;-74
2022/05/29 01:41:22;;;;;;;10.88;1.88;;;10.60;95.90;;;;;;4996570;28;20381;-73
2022/05/29 01:44:15;;;;;;;9.23;2.57;;;10.50;95.80;;;;;;4994715;28;20073;-74
2022/05/29 01:46:45;;;;;;;6.60;1.90;;;10.60;95.70;;;;;;4995132;28;20073;-73
2022/05/29 01:49:21;;;;;;;8.23;1.90;;;10.50;95.90;;;;;;4996315;28;20081;-74
2022/05/29 01:52:01;;;;;;;10.17;2.00;;;10.60;95.80;;;;;;4977692;28;20031;-74
2022/05/29 01:54:33;;;;;;;13.63;1.90;;;10.60;95.70;;;;;;4995210;28;20093;-73
2022/05/29 01:57:12;;;;;;;6.27;1.70;;;10.60;95.70;;;;;;4977745;28;20034;-73
2022/05/29 02:00:16;;;;;;;10.00;2.40;;;10.60;95.60;;;;;;4995445;28;20027;-74
2022/05/29 02:02:48;;;;;;;10.67;1.97;;;10.60;95.60;;;;;;4916768;29;20092;-74
2022/05/29 02:05:18;;;;;;;6.50;1.90;;;10.60;95.90;;;;;;4982746;28;20290;-74
2022/05/29 02:07:48;;;;;;;12.53;2.30;;;10.50;95.70;;;;;;4996030;28;20089;-73
2022/05/29 02:10:34;;;;;;;5.90;1.30;;;10.60;95.70;;;;;;4995933;28;20089;-74
2022/05/29 02:13:18;;;;;;;7.97;1.80;;;10.50;95.60;;;;;;4995835;28;20027;-74
2022/05/29 02:15:51;;;;;;;10.55;2.30;;;10.50;95.80;;;;;;4992315;28;20482;-73
2022/05/29 02:18:34;;;;;;;10.80;2.10;;;10.40;96.10;;;;;;4981436;28;20047;-77
2022/05/29 02:21:06;;;;;;;7.37;1.90;;;10.40;95.90;;;;;;4984643;28;20026;-77
2022/05/29 02:23:34;;;;;;;12.00;2.07;;;10.40;96.10;;;;;;4995377;28;20027;-76
2022/05/29 02:26:03;;;;;;;11.53;2.50;;;10.30;96.00;;;;;;4995493;28;20036;-77
2022/05/29 02:28:36;;;;;;;10.80;1.97;;;10.30;96.30;;;;;;4977853;28;20389;-76
2022/05/29 02:31:41;;;;;;;7.43;2.30;;;10.30;96.20;;;;;;4994775;28;20018;-76
2022/05/29 02:34:33;;;;;;;8.40;2.72;;;10.30;96.30;;;;;;4995292;28;20030;-77
2022/05/29 02:37:17;;;;;;;9.03;2.03;;;10.30;96.40;;;;;;4994548;28;20465;-77
2022/05/29 02:39:51;;;;;;;6.10;1.67;;;10.30;96.60;;;;;;4994944;28;20070;-77
2022/05/29 02:42:26;;;;;;;6.53;1.77;;;10.30;96.50;;;;;;4994978;28;20027;-77
2022/05/29 02:45:02;;;;;;;9.70;1.70;;;10.20;96.80;;;;;;4991919;28;20015;-77
2022/05/29 02:47:41;;;;;;;6.10;1.67;;;10.20;96.70;;;;;;4977756;28;20053;-76
2022/05/29 02:50:43;;;;;;;7.17;1.50;;;10.20;96.80;;;;;;4977761;28;20023;-76
2022/05/29 02:53:14;;;;;;;4.87;1.30;;;10.10;96.80;;;;;;4969650;28;20049;-76
2022/05/29 02:55:43;;;;;;;5.07;1.53;;;10.10;96.80;;;;;;4994801;28;20072;-77
2022/05/29 02:58:21;;;;;;;8.77;1.70;;;10.10;97.00;;;;;;4994966;28;20386;-77
2022/05/29 03:01:02;;;;;;;9.57;1.40;;;10.10;97.30;;;;;;4980643;28;20077;-76
2022/05/29 03:03:38;;;;;;;6.80;1.60;;;10.20;97.30;;;;;;4975581;28;20106;-77
2022/05/29 03:06:25;;;;;;;10.60;1.50;;;10.10;97.60;;;;;;4975849;28;20041;-77
2022/05/29 03:09:19;;;;;;;8.43;1.77;;;10.00;97.40;;;;;;4990572;28;20050;-77
2022/05/29 03:11:46;;;;;;;7.40;1.67;;;10.00;97.40;;;;;;4975617;28;20037;-76
2022/05/29 03:14:28;;;;;;;8.80;2.03;;;10.00;97.70;;;;;;4958201;28;20125;-77
2022/05/29 03:17:38;;;;;;;6.47;1.43;;;10.00;98.00;;;;;;4956544;28;20491;-77
2022/05/29 03:20:31;;;;;;;7.10;1.70;;;10.00;98.00;;;;;;4954938;28;20037;-77
2022/05/29 03:22:58;;;;;;;6.83;1.57;;;10.00;98.20;;;;;;4994378;28;20023;-77
2022/05/29 03:25:42;;;;;;;7.93;1.83;;;9.90;98.20;;;;;;4993925;28;20030;-77
2022/05/29 03:28:17;;;;;;;6.60;1.60;;;9.90;98.30;;;;;;4991908;28;20030;-76
2022/05/29 03:30:45;;;;;;;7.33;1.80;;;9.90;98.30;;;;;;4988513;28;20102;-76
2022/05/29 03:33:13;;;;;;;9.77;1.93;;;10.00;98.40;;;;;;4993199;28;20034;-76
2022/05/29 03:36:03;;;;;;;7.50;2.03;;;10.00;98.60;;;;;;4994161;28;20037;-77
2022/05/29 03:38:29;;;;;;;9.03;2.30;;;10.00;98.50;;;;;;4992966;28;20050;-76
2022/05/29 03:40:55;;;;;;;6.17;2.10;;;10.00;98.70;;;;;;4993055;28;20041;-76
2022/05/29 03:43:21;;;;;;;9.70;1.70;;;10.00;98.60;;;;;;4994277;28;20030;-76
2022/05/29 03:45:47;;;;;;;9.30;2.43;;;10.00;98.50;;;;;;4993899;28;20041;-76
2022/05/29 03:48:12;;;;;;;9.97;2.63;;;10.00;98.50;;;;;;4977082;28;20092;-77
2022/05/29 03:50:38;;;;;;;10.90;2.03;;;10.10;98.90;;;;;;4994246;28;20030;-76
2022/05/29 03:53:05;;;;;;;10.77;2.17;;;10.00;98.80;;;;;;4994015;28;20430;-76
2022/05/29 03:55:31;;;;;;;12.07;3.10;;;10.10;98.80;;;;;;4960724;28;20027;-77
2022/05/29 03:57:57;;;;;;;8.23;1.73;;;10.10;99.00;;;;;;4994364;28;20045;-76
2022/05/29 04:00:24;;;;;;;6.70;2.13;;;10.10;99.10;;;;;;4994134;28;20027;-77
2022/05/29 04:02:51;;;;;;;10.83;2.63;;;10.10;99.00;;;;;;4994465;28;20034;-77
2022/05/29 04:05:19;;;;;;;9.80;2.20;;;10.10;99.10;;;;;;4993946;28;20033;-75
2022/05/29 04:13:14;;;;;;;6.70;2.33;;;10.20;99.20;;;;;;4994468;28;20061;-76
2022/05/29 04:15:46;;;;;;;7.95;1.60;;;10.20;99.10;;;;;;4967643;28;20467;-76
2022/05/29 04:18:17;;;;;;;6.07;1.77;;;10.30;99.10;;;;;;4972396;28;20035;-76
2022/05/29 04:20:43;;;;;;;8.00;2.53;;;10.30;99.00;;;;;;4957109;28;20023;-76
2022/05/29 04:23:09;;;;;;;7.17;2.33;;;10.30;99.00;;;;;;4974588;28;20019;-77
2022/05/29 04:25:35;;;;;;;9.50;2.37;;;10.30;98.90;;;;;;4957332;28;20443;-76
2022/05/29 04:28:03;;;;;;;5.60;1.90;;;10.40;98.90;;;;;;4991395;28;20027;-76
2022/05/29 04:30:29;;;;;;;8.50;1.93;;;10.40;98.90;;;;;;4977241;28;20031;-77
2022/05/29 04:33:01;;;;;;;11.07;2.23;;;10.40;98.90;;;;;;4993390;28;20046;-77
2022/05/29 04:35:28;;;;;;;7.47;2.20;;;10.40;98.90;;;;;;4997834;28;20058;-77
2022/05/29 04:37:54;;;;;;;7.60;1.40;;;10.50;98.90;;;;;;4992151;28;20458;-76
2022/05/29 04:40:20;;;;;;;6.50;1.50;;;10.50;98.90;;;;;;4993085;28;20043;-76
2022/05/29 04:42:45;;;;;;;8.43;1.67;;;10.60;98.90;;;;;;4978023;28;20073;-76
2022/05/29 04:45:11;;;;;;;9.83;2.03;;;10.60;98.80;;;;;;4960602;28;20459;-76
2022/05/29 04:47:37;;;;;;;6.73;1.70;;;10.70;98.80;;;;;;4960493;28;20029;-77
2022/05/29 04:50:03;;;;;;;5.45;1.50;;;10.70;98.70;;;;;;4944729;28;20034;-76
2022/05/29 04:52:29;;;;;;;5.13;1.57;;;10.70;98.70;;;;;;4972024;28;20517;-76
2022/05/29 04:54:55;;;;;;;6.60;1.43;;;10.70;98.60;;;;;;4976254;28;20039;-76
2022/05/29 04:57:21;;;;;;;4.97;1.00;;;10.80;98.60;;;;;;4977387;28;20142;-76
2022/05/29 04:59:46;;;;;;;2.77;0.90;;;10.90;98.70;;;;;;4976870;28;20019;-76
2022/05/29 05:02:12;;;;;;;3.77;1.10;;;10.90;98.60;;;;;;4977880;28;20031;-75
2022/05/29 05:04:38;;;;;;;4.53;1.13;;;10.90;98.60;;;;;;4975535;28;20427;-76
2022/05/29 05:07:04;;;;;;;6.50;1.35;;;11.00;98.50;;;;;;4997120;28;20072;-76
2022/05/29 05:09:30;;;;;;;5.97;1.27;;;11.00;98.60;;;;;;4996981;28;20065;-75
2022/05/29 05:11:57;;;;;;;5.30;1.37;;;11.00;98.70;;;;;;4979416;28;20413;-77
2022/05/29 05:14:24;;;;;;;5.43;1.30;;;11.00;98.80;;;;;;4996944;28;20121;-75
2022/05/29 05:16:50;;;;;;;5.53;1.13;;;11.00;98.70;;;;;;4996362;28;20035;-76
2022/05/29 05:19:16;;;;;;;6.37;1.50;;;11.00;98.80;;;;;;4981631;28;20035;-76
2022/05/29 05:21:42;;;;;;;7.60;1.60;;;11.00;99.20;;;;;;4977525;28;20394;-79
2022/05/29 05:24:09;;;;;;;5.47;1.20;;;11.00;98.90;;;;;;4985869;28;20037;-77
2022/05/29 05:26:35;;;;;;;7.03;1.13;;;11.00;98.90;;;;;;4995648;28;20034;-79
2022/05/29 05:29:02;;;;;;;4.22;0.80;;;11.00;98.80;;;;;;4995159;28;20057;-77
2022/05/29 05:31:27;;;;;;;5.60;1.40;;;11.00;99.00;;;;;;4996801;28;20026;-77
2022/05/29 05:33:53;;;;;;;7.83;1.87;;;11.10;98.80;;;;;;4996580;28;20475;-78
2022/05/29 05:36:19;;;;;;;8.40;1.20;;;11.00;98.80;;;;;;4978858;28;20022;-77
2022/05/29 05:38:45;;;;;;;8.30;1.48;;;11.00;98.80;;;;;;4996068;28;20047;-78
2022/05/29 05:41:12;;;;;;;5.30;0.90;;;10.90;99.00;;;;;;4996559;28;20044;-78
2022/05/29 05:43:39;;;;;;;3.77;1.23;;;10.90;99.10;;;;;;4996384;28;20462;-77
2022/05/29 05:46:10;;;;;;;6.03;1.30;;;10.90;99.20;;;;;;4976494;28;20034;-77
2022/05/29 05:48:38;;;;;;;5.32;1.13;;;10.80;99.40;;;;;;4977435;28;20027;-76
2022/05/29 05:51:04;;;;;;;5.40;1.43;;;10.90;99.50;;;;;;4977889;28;20030;-77
2022/05/29 05:53:30;;;;;;;4.63;1.17;;;10.90;99.50;;;;;;4976936;28;20031;-76
2022/05/29 05:55:56;;;;;;;6.30;1.07;;;10.90;99.80;;;;;;4996129;28;20105;-77
2022/05/29 05:58:22;;;;;;;6.70;1.57;;;10.90;99.60;;;;;;4946260;28;20127;-78
2022/05/29 06:00:49;;;;;;;2.35;1.13;;;10.90;99.50;;;;;;4964598;28;20023;-78
2022/05/29 06:03:15;;;;;;;8.73;1.53;;;11.00;99.50;;;;;;4956003;28;20022;-78
2022/05/29 06:05:41;;;;;;;6.93;1.63;;;11.00;99.50;;;;;;4976858;28;20035;-78
2022/05/29 06:08:08;;;;;;;6.73;1.50;;;11.10;99.50;;;;;;4995288;28;20032;-79
2022/05/29 06:10:34;;;;;;;2.90;0.90;;;11.20;99.50;;;;;;4986369;28;20039;-79
2022/05/29 06:13:04;;;;;;;5.40;0.90;;;11.20;99.50;;;;;;4978060;28;21030;-78
2022/05/29 06:15:30;;;;;;;5.00;1.13;;;11.30;99.40;;;;;;4975685;28;20039;-78
2022/05/29 06:17:56;;;;;;;6.40;0.80;;;11.30;99.30;;;;;;4975580;28;20085;-77
2022/05/29 06:20:22;;;;;;;4.57;0.70;;;11.30;99.20;;;;;;4958743;28;20081;-77
2022/05/29 06:22:48;;;;;;;4.15;0.80;;;11.40;99.10;;;;;;4942856;28;20383;-78
2022/05/29 06:25:14;;;;;;;2.93;0.70;;;11.40;99.00;;;;;;4986265;28;20033;-77
2022/05/29 06:27:43;;;;;;;3.42;0.90;;;11.50;99.00;;;;;;4987932;28;20066;-77
2022/05/29 06:30:12;;;;;;;2.45;0.70;;;11.50;98.80;;;;;;4974493;28;20022;-78
2022/05/29 06:32:38;;;;;;;2.85;0.80;;;11.60;98.60;;;;;;4995516;28;20475;-77
2022/05/29 06:35:10;;;;;;;4.00;1.15;;;11.60;98.50;;;;;;4977536;28;20479;-77
2022/05/29 06:37:40;;;;;;;2.97;1.15;;;11.70;98.50;;;;;;4977463;28;20025;-77
2022/05/29 06:40:07;;;;;;;3.97;1.10;;;11.70;98.40;;;;;;4977610;28;20046;-76
2022/05/29 06:42:33;;;;;;;3.97;1.10;;;11.80;98.40;;;;;;4977838;28;20505;-77
2022/05/29 06:44:59;;;;;;;4.85;1.63;;;11.80;98.30;;;;;;4989982;28;20058;-78
2022/05/29 06:47:25;;;;;;;4.10;1.00;;;11.80;98.60;;;;;;4975828;28;20062;-77
2022/05/29 06:49:51;;;;;;;4.18;0.85;;;11.90;98.30;;;;;;4958395;28;20502;-77
2022/05/29 06:52:18;;;;;;;4.32;1.25;;;11.90;98.20;;;;;;4958232;28;20038;-76
2022/05/29 06:54:44;;;;;;;5.00;1.17;;;11.90;98.00;;;;;;4975765;28;20106;-77
2022/05/29 06:57:12;;;;;;;5.40;1.35;;;11.90;97.70;;;;;;4975431;28;20031;-77
2022/05/29 07:07:58;;;;;;;5.85;1.02;;;11.90;97.90;;;;;;4995099;28;20124;-78
2022/05/29 07:10:33;;;;;;;3.47;1.00;;;11.90;97.80;;;;;;4973934;28;20372;-77
2022/05/29 07:13:00;;;;;;;3.33;0.85;;;12.00;97.90;;;;;;4974071;28;20042;-77
2022/05/29 07:15:26;;;;;;;4.40;0.75;;;12.10;97.80;;;;;;4975056;28;20473;-76
2022/05/29 07:17:52;;;;;;;4.25;0.82;;;12.10;97.50;;;;;;4974617;28;20080;-76
2022/05/29 07:20:17;;;;;;;5.88;0.90;;;12.00;97.40;;;;;;4995006;28;20474;-76
2022/05/29 07:22:43;;;;;;;2.35;1.00;;;12.20;97.40;;;;;;4975768;28;20030;-76
2022/05/29 07:25:11;;;;;;;2.53;0.60;;;12.20;97.40;;;;;;4985791;28;20493;-77
2022/05/29 07:27:40;;;;;;;6.75;0.88;;;12.20;97.30;;;;;;4977285;28;20053;-77
2022/05/29 07:30:07;;;;;;;4.63;0.90;;;12.20;97.20;;;;;;4977010;28;20065;-76
2022/05/29 07:32:32;;;;;;;3.53;0.60;;;12.20;96.80;;;;;;4993041;28;20117;-77
2022/05/29 07:34:58;;;;;;;3.03;0.50;;;12.20;96.60;;;;;;4977357;28;20113;-76
2022/05/29 07:37:24;;;;;;;3.78;0.68;;;12.00;96.60;;;;;;4976502;28;20038;-77
2022/05/29 07:39:52;;;;;;;2.53;0.45;;;12.20;96.50;;;;;;4994420;28;20053;-77
2022/05/29 07:45:05;;;;;;;4.05;0.68;;;12.10;96.30;;;;;;4979685;28;20046;-77
2022/05/29 07:47:46;;;;;;;7.63;0.93;;;12.10;96.40;;;;;;4973189;28;20054;-76
2022/05/29 07:50:15;;;;;;;1.98;0.60;;;12.10;96.30;;;;;;4974576;28;20027;-76
2022/05/29 07:52:41;;;;;;;2.90;0.70;;;12.10;96.40;;;;;;4973395;28;20041;-76
2022/05/29 07:55:07;;;;;;;3.47;0.60;;;12.10;96.50;;;;;;4992610;28;20431;-77
2022/05/29 07:57:33;;;;;;;4.43;0.80;;;12.10;96.50;;;;;;4993436;28;20154;-76
2022/05/29 07:59:58;;;;;;;3.80;0.70;;;12.20;96.70;;;;;;4993901;28;20490;-76
2022/05/29 08:02:24;;;;;;;5.38;1.17;;;12.30;96.70;;;;;;4995704;28;20467;-76
2022/05/29 08:04:50;;;;;;;5.35;0.70;;;12.40;96.80;;;;;;4982836;28;20034;-76
2022/05/29 08:07:17;;;;;;;3.67;0.52;;;12.50;96.60;;;;;;4995359;28;20042;-76
2022/05/29 08:09:43;;;;;;;3.30;0.77;;;12.50;96.40;;;;;;4983229;28;20372;-77
2022/05/29 08:12:10;;;;;;;4.75;0.90;;;12.60;96.40;;;;;;4963241;28;21106;-76
2022/05/29 08:14:36;;;;;;;3.00;0.70;;;12.60;96.40;;;;;;4947453;28;20558;-77
2022/05/29 08:17:01;;;;;;;2.50;0.70;;;12.70;96.30;;;;;;4963499;28;20035;-77
2022/05/29 08:19:27;;;;;;;4.53;0.63;;;12.70;96.30;;;;;;4980710;28;20475;-76
2022/05/29 08:21:53;;;;;;;5.10;0.80;;;12.80;96.30;;;;;;4980991;28;20050;-76
2022/05/29 08:32:35;;;;;;;5.20;0.70;;;12.80;95.90;;;;;;4980023;28;20073;-76
2022/05/29 08:35:01;;;;;;;3.35;0.90;;;12.80;95.70;;;;;;4979276;28;20122;-76
2022/05/29 08:37:28;;;;;;;3.90;0.90;;;12.80;95.60;;;;;;4981168;28;20030;-77
2022/05/29 08:39:53;;;;;;;2.85;0.80;;;12.80;95.60;;;;;;4963185;28;20569;-77
2022/05/29 08:42:19;;;;;;;6.05;0.88;;;12.90;95.70;;;;;;4979536;28;20047;-78
2022/05/29 08:44:49;;;;;;;5.10;0.70;;;13.00;95.70;;;;;;4979539;28;20030;-77
2022/05/29 08:47:26;;;;;;;2.85;0.60;;;13.00;95.40;;;;;;4980408;28;20526;-77
2022/05/29 08:49:52;;;;;;;3.67;0.70;;;13.10;95.40;;;;;;4963069;28;20027;-77
2022/05/29 08:52:39;;;;;;;4.00;0.60;;;13.20;95.20;;;;;;4963032;28;20141;-77
2022/05/29 08:55:17;;;;;;;2.72;0.50;;;13.40;95.10;;;;;;4980485;28;20363;-77
2022/05/29 08:58:05;;;;;;;4.63;0.60;;;13.50;94.50;;;;;;4984288;28;20077;-77
2022/05/29 09:00:55;;;;;;;3.08;0.50;;;13.50;94.00;;;;;;4999696;28;20025;-78
2022/05/29 09:04:04;;;;;;;3.17;0.73;;;13.50;93.60;;;;;;4998501;28;20113;-77
2022/05/29 09:06:41;;;;;;;5.63;0.50;;;13.60;93.10;;;;;;4998895;28;20105;-76
2022/05/29 09:09:28;;;;;;;3.63;0.50;;;13.70;93.20;;;;;;4999834;28;20045;-77
2022/05/29 09:11:57;;;;;;;3.33;0.45;;;13.80;93.20;;;;;;4998420;28;20035;-77
2022/05/29 09:14:44;;;;;;;3.00;0.50;;;13.90;93.20;;;;;;4997018;28;20035;-78
2022/05/29 09:17:47;;;;;;;3.90;0.60;;;14.10;93.10;;;;;;4996768;28;20034;-77
2022/05/29 09:20:19;;;;;;;3.15;0.60;;;14.20;92.90;;;;;;4987094;28;20669;-77
2022/05/29 09:22:44;;;;;;;3.35;0.50;;;14.30;92.80;;;;;;4995221;28;20053;-76
2022/05/29 09:25:28;;;;;;;2.60;0.40;;;14.30;92.80;;;;;;4996429;28;20363;-76
2022/05/29 09:27:54;;;;;;;3.03;0.57;;;14.40;92.60;;;;;;4995212;28;20549;-78
2022/05/29 09:30:20;;;;;;;5.20;0.50;;;14.40;92.00;;;;;;4979946;28;20110;-77
2022/05/29 09:32:56;;;;;;;4.40;0.80;;;14.50;92.20;;;;;;4977264;28;20038;-77
2022/05/29 09:35:49;;;;;;;4.57;0.95;;;14.60;91.90;;;;;;4976946;28;20545;-77
2022/05/29 09:38:36;;;;;;;4.20;0.50;;;14.70;92.00;;;;;;4959463;28;20039;-81
2022/05/29 09:41:06;;;;;;;2.90;0.55;;;14.80;90.90;;;;;;4937367;29;20046;-81
2022/05/29 09:43:32;;;;;;;4.93;0.65;;;14.80;90.80;;;;;;4937263;29;20035;-76
2022/05/29 09:46:19;;;;;;;2.53;0.60;;;14.70;90.20;;;;;;4951987;29;20385;-78
2022/05/29 09:51:53;;;;;;;5.75;0.70;;;14.70;90.30;;;;;;4957153;29;20750;-78
2022/05/29 09:54:29;;;;;;;4.82;0.80;;;14.90;90.30;;;;;;4957442;28;20027;-79
2022/05/29 09:57:08;;;;;;;2.60;0.40;;;15.10;89.70;;;;;;4955994;29;20035;-77
2022/05/29 09:59:38;;;;;;;6.45;0.60;;;15.10;89.30;;;;;;4955818;28;20162;-78
2022/05/29 10:02:05;;;;;;;2.28;0.50;;;15.30;88.70;;;;;;4956969;28;20038;-77
2022/05/29 10:04:37;;;;;;;4.20;0.70;;;15.30;88.20;;;;;;4957097;28;20031;-78
2022/05/29 10:07:30;;;;;;;3.85;0.55;;;15.30;87.30;;;;;;4971877;28;20086;-78
2022/05/29 10:10:04;;;;;;;2.70;0.30;;;15.20;86.60;;;;;;4957012;28;20039;-77
2022/05/29 10:12:42;;;;;;;3.35;0.50;;;15.20;85.50;;;;;;4955931;28;20061;-78
2022/05/29 10:15:26;;;;;;;4.03;0.45;;;15.10;85.20;;;;;;4971802;28;20027;-77
2022/05/29 10:18:05;;;;;;;4.65;0.55;;;15.10;85.70;;;;;;4971716;28;20510;-81
2022/05/29 10:20:33;;;;;;;5.95;0.88;;;15.10;84.70;;;;;;4955694;28;20042;-76
2022/05/29 10:23:08;;;;;;;4.03;0.47;;;15.10;84.60;;;;;;4956829;28;20028;-77
2022/05/29 10:25:57;;;;;;;6.78;0.40;;;15.10;84.50;;;;;;4956398;28;20118;-77
2022/05/29 10:28:28;;;;;;;3.83;0.40;;;15.10;84.60;;;;;;4955124;29;20031;-77
2022/05/29 10:31:04;;;;;;;5.95;0.80;;;15.10;84.80;;;;;;4956753;28;20472;-78
2022/05/29 10:33:33;;;;;;;2.65;0.55;;;15.20;84.40;;;;;;4971436;28;20106;-77
2022/05/29 10:36:14;;;;;;;4.95;0.63;;;15.30;84.80;;;;;;4971368;28;20114;-78
2022/05/29 10:38:40;;;;;;;5.43;0.57;;;15.50;84.90;;;;;;4961469;28;20384;-77
2022/05/29 10:41:07;;;;;;;4.57;0.77;;;15.60;83.60;;;;;;4993901;28;20030;-78
2022/05/29 10:43:40;;;;;;;6.57;0.93;;;15.60;82.80;;;;;;4995057;28;20037;-80
2022/05/29 10:46:24;;;;;;;4.78;0.50;;;15.60;82.20;;;;;;4994927;28;20100;-77
2022/05/29 10:49:28;;;;;;;3.60;0.45;;;15.60;82.20;;;;;;4995433;28;20027;-79
2022/05/29 10:52:02;;;;;;;2.88;0.43;;;15.60;82.30;;;;;;4995035;28;20381;-78
2022/05/29 10:55:05;;;;;;;2.50;0.40;;;15.60;81.70;;;;;;4993742;28;20053;-77
2022/05/29 10:57:52;;;;;;;6.47;0.75;;;15.60;81.40;;;;;;4994704;28;20038;-81
2022/05/29 11:00:42;;;;;;;3.15;0.43;;;15.70;80.70;;;;;;4994910;28;20034;-81
2022/05/29 11:03:42;;;;;;;3.10;0.70;;;15.70;80.70;;;;;;4994817;28;20026;-78
2022/05/29 11:06:13;;;;;;;3.22;0.45;;;15.70;80.30;;;;;;4994824;28;20478;-78
2022/05/29 11:09:04;;;;;;;6.95;0.90;;;15.80;80.40;;;;;;4994253;28;20470;-78
2022/05/29 11:11:55;;;;;;;4.95;0.50;;;16.10;80.50;;;;;;4975162;28;20038;-79
2022/05/29 11:14:41;;;;;;;4.38;0.50;;;16.40;80.20;;;;;;4975166;28;20026;-79
2022/05/29 11:17:10;;;;;;;5.45;0.70;;;16.60;79.30;;;;;;4975068;28;20049;-80
2022/05/29 11:19:55;;;;;;;5.60;0.60;;;16.80;78.60;;;;;;4975056;28;20406;-82
2022/05/29 11:22:26;;;;;;;3.70;0.70;;;17.00;78.20;;;;;;4973827;28;20023;-82
2022/05/29 11:25:06;;;;;;;7.50;1.08;;;17.30;77.40;;;;;;4984371;28;20027;-78
2022/05/29 11:27:54;;;;;;;5.68;1.40;;;17.50;74.20;;;;;;4989933;28;20045;-82
2022/05/29 11:30:32;;;;;;;6.78;0.73;;;17.40;72.10;;;;;;4974900;28;20035;-84
2022/05/29 11:33:16;;;;;;;3.20;0.52;;;17.40;71.50;;;;;;4973602;28;20030;-82
2022/05/29 11:36:18;;;;;;;3.58;0.70;;;17.30;71.50;;;;;;4973620;28;20030;-79
2022/05/29 11:38:52;;;;;;;8.30;0.77;;;17.20;69.70;;;;;;4974016;28;20030;-80
2022/05/29 11:41:29;;;;;;;4.70;0.60;;;17.00;70.20;;;;;;4974848;28;20518;-80
2022/05/29 11:44:05;;;;;;;3.45;0.50;;;16.90;70.60;;;;;;4981376;28;20034;-80
2022/05/29 11:52:34;;;;;;;4.07;0.40;;;17.00;71.20;;;;;;4974926;28;20037;-80
2022/05/29 11:55:18;;;;;;;2.25;0.52;;;17.10;71.00;;;;;;4974230;28;20038;-78
2022/05/29 11:57:47;;;;;;;7.18;0.90;;;17.20;70.90;;;;;;4980949;28;20462;-80
2022/05/29 12:00:31;;;;;;;3.92;0.50;;;17.30;70.70;;;;;;4973176;28;20034;-78
2022/05/29 12:03:27;;;;;;;1.48;0.30;;;17.50;70.30;;;;;;4978919;28;20126;-80
2022/05/29 12:06:03;;;;;;;5.20;0.50;;;17.60;68.40;;;;;;4949976;28;20038;-78
2022/05/29 12:08:53;;;;;;;2.55;0.40;;;17.80;68.50;;;;;;4977545;28;20023;-76
2022/05/29 12:11:34;;;;;;;3.65;0.57;;;18.00;67.90;;;;;;4991945;28;20076;-78
2022/05/29 12:14:19;;;;;;;3.25;0.50;;;18.30;67.20;;;;;;4992503;28;20478;-77
2022/05/29 12:16:48;;;;;;;3.08;0.50;;;18.60;66.50;;;;;;4994432;28;20046;-76
2022/05/29 12:19:21;;;;;;;4.10;0.80;;;18.80;65.70;;;;;;4993840;28;20035;-78
2022/05/29 12:21:47;;;;;;;2.97;0.80;;;19.00;64.30;;;;;;4993911;28;20023;-77
2022/05/29 12:24:19;;;;;;;2.67;0.40;;;19.20;63.80;;;;;;4973045;28;20089;-78
2022/05/29 12:27:03;;;;;;;2.00;0.47;;;19.50;63.30;;;;;;4990295;28;20026;-77
2022/05/29 12:29:41;;;;;;;2.75;0.47;;;19.70;62.20;;;;;;4993668;28;20026;-77
2022/05/29 12:32:17;;;;;;;1.63;0.25;;;20.00;62.20;;;;;;4991824;28;20117;-77
2022/05/29 12:35:05;;;;;;;4.38;0.77;;;20.10;61.90;;;;;;4992584;28;20034;-80
2022/05/29 12:37:43;;;;;;;2.45;0.60;;;20.10;61.20;;;;;;4992508;28;20046;-81
2022/05/29 12:40:14;;;;;;;2.30;0.32;;;20.10;60.20;;;;;;4993564;28;20050;-79
2022/05/29 12:43:07;;;;;;;5.80;0.40;;;20.00;58.10;;;;;;4992224;28;20031;-78
2022/05/29 12:45:49;;;;;;;2.40;0.45;;;19.70;57.60;;;;;;4992257;28;20468;-84
2022/05/29 12:48:45;;;;;;;2.65;0.40;;;19.30;58.20;;;;;;4966359;28;20085;-79
2022/05/29 12:51:26;;;;;;;1.48;0.20;;;19.00;58.40;;;;;;4976181;28;20485;-78
2022/05/29 12:54:36;;;;;;;1.35;0.30;;;18.70;58.30;;;;;;4985888;28;20073;-79
2022/05/29 12:57:39;;;;;;;3.30;0.45;;;18.50;59.20;;;;;;4981773;28;20031;-83
2022/05/29 13:00:29;;;;;;;1.63;0.25;;;18.30;60.00;;;;;;4972108;28;20022;-81
2022/05/29 13:03:07;;;;;;;2.75;0.40;;;18.20;60.30;;;;;;4982922;28;20121;-80
2022/05/29 13:05:49;;;;;;;2.67;0.40;;;18.20;60.70;;;;;;4986558;28;20032;-81
2022/05/29 13:08:38;;;;;;;2.13;0.35;;;18.40;61.00;;;;;;4983130;28;20058;-81
2022/05/29 13:11:05;;;;;;;3.10;0.50;;;18.90;61.00;;;;;;4986578;28;20035;-73
2022/05/29 13:13:43;;;;;;;1.02;0.20;;;19.20;60.40;;;;;;4959264;28;20031;-73
2022/05/29 13:16:30;;;;;;;3.17;0.20;;;19.40;60.20;;;;;;4988505;28;20030;-74
2022/05/29 13:19:21;;;;;;;2.90;0.45;;;19.40;59.90;;;;;;4985356;28;20134;-73
2022/05/29 13:22:02;;;;;;;2.45;0.30;;;19.30;59.70;;;;;;4973092;28;20046;-74
2022/05/29 13:24:47;;;;;;;2.35;0.30;;;19.20;59.50;;;;;;4974805;28;20057;-75
2022/05/29 13:27:13;;;;;;;1.73;0.20;;;19.20;59.50;;;;;;4973120;28;20386;-75
2022/05/29 13:29:55;;;;;;;4.05;0.40;;;19.10;59.60;;;;;;4982667;28;20030;-74
2022/05/29 13:32:29;;;;;;;2.42;0.40;;;19.10;59.60;;;;;;4981560;28;20034;-75
2022/05/29 13:35:16;;;;;;;2.33;0.50;;;19.00;59.70;;;;;;4973251;28;20459;-74
2022/05/29 13:37:46;;;;;;;1.25;0.30;;;19.00;59.90;;;;;;4971811;28;20026;-74
2022/05/29 13:40:21;;;;;;;1.73;0.40;;;19.10;60.00;;;;;;4990290;28;20042;-76
2022/05/29 13:42:52;;;;;;;1.45;0.30;;;19.00;60.00;;;;;;4969209;28;20109;-74
2022/05/29 13:45:45;;;;;;;1.58;0.38;;;19.10;60.00;;;;;;4988552;28;20463;-76
2022/05/29 13:48:27;;;;;;;3.90;0.35;;;19.20;59.80;;;;;;4987128;28;20042;-75
2022/05/29 13:51:11;;;;;;;3.70;0.40;;;19.40;59.60;;;;;;4987852;28;20022;-74
2022/05/29 13:53:55;;;;;;;3.13;0.40;;;19.60;59.20;;;;;;4984380;28;20499;-76